Time;durP1;ratioP1;P1;durP2;ratioP2;P2;SDS_P1;SDS_P2;PMS_P1;PMS_P2;Temp;Humidity;BMP_temperature;BMP_pressure;BME280_temperature;BME280_humidity;BME280_pressure;Samples;Min_cycle;Max_cycle;Signal;HPM_P1;HPM_P2
2022/12/31 00:00:32;;;;;;;1.40;1.00;;;;;;;;;;5033431;28;20029;-76
2022/12/31 00:03:17;;;;;;;1.13;0.80;;;;;;;;;;5034176;28;20040;-76
2022/12/31 00:06:32;;;;;;;2.47;1.20;;;;;;;;;;5021549;28;20083;-90
2022/12/31 00:09:17;;;;;;;1.75;1.20;;;;;;;;;;5025739;28;20041;-88
2022/12/31 00:12:02;;;;;;;1.70;0.90;;;;;;;;;;5034339;28;20037;-89
2022/12/31 00:14:48;;;;;;;3.38;1.00;;;;;;;;;;5047040;28;20086;-91
2022/12/31 00:17:33;;;;;;;5.60;1.60;;;;;;;;;;5033472;28;20438;-90
2022/12/31 00:20:18;;;;;;;2.95;1.20;;;;;;;;;;5043878;28;20033;-74
2022/12/31 00:23:03;;;;;;;1.77;0.80;;;;;;;;;;5033256;28;20040;-77
2022/12/31 00:25:48;;;;;;;0.82;0.82;;;;;;;;;;5034825;28;20047;-76
2022/12/31 00:28:34;;;;;;;1.77;1.08;;;;;;;;;;5052661;28;20127;-75
2022/12/31 00:31:21;;;;;;;1.83;0.93;;;;;;;;;;5033283;28;20488;-75
2022/12/31 00:34:06;;;;;;;2.55;0.88;;;;;;;;;;5033431;28;20025;-77
2022/12/31 00:36:52;;;;;;;2.50;1.00;;;;;;;;;;5033131;28;20491;-76
2022/12/31 00:39:37;;;;;;;1.40;0.98;;;;;;;;;;5033649;28;20033;-91
2022/12/31 00:42:22;;;;;;;3.13;1.15;;;;;;;;;;5033266;28;20281;-73
2022/12/31 00:45:08;;;;;;;1.45;0.80;;;;;;;;;;5046702;28;20094;-74
2022/12/31 00:47:53;;;;;;;2.40;0.85;;;;;;;;;;5047458;28;20029;-73
2022/12/31 00:50:38;;;;;;;0.95;0.90;;;;;;;;;;5027618;28;20036;-74
2022/12/31 00:53:24;;;;;;;2.47;1.02;;;;;;;;;;5046914;28;20517;-73
2022/12/31 00:56:10;;;;;;;2.97;0.80;;;;;;;;;;5032969;28;20033;-73
2022/12/31 00:58:59;;;;;;;1.65;0.80;;;;;;;;;;5038126;28;20107;-72
2022/12/31 01:01:44;;;;;;;0.73;0.73;;;;;;;;;;5014012;28;20083;-79
2022/12/31 01:04:29;;;;;;;2.88;0.80;;;;;;;;;;5032664;28;20377;-79
2022/12/31 01:07:14;;;;;;;1.42;0.80;;;;;;;;;;5032941;28;20037;-78
2022/12/31 01:10:00;;;;;;;1.75;0.95;;;;;;;;;;5046752;28;20078;-79
2022/12/31 01:12:45;;;;;;;1.30;0.82;;;;;;;;;;5020242;28;20075;-76
2022/12/31 01:15:34;;;;;;;1.58;0.90;;;;;;;;;;5045073;28;20207;-75
2022/12/31 01:18:21;;;;;;;2.00;0.88;;;;;;;;;;5032392;28;20033;-74
2022/12/31 01:21:07;;;;;;;1.92;0.88;;;;;;;;;;5035191;28;20039;-88
2022/12/31 01:23:56;;;;;;;2.00;1.05;;;;;;;;;;5035823;28;20040;-89
2022/12/31 01:26:41;;;;;;;3.35;1.00;;;;;;;;;;5050936;28;20021;-88
2022/12/31 01:29:27;;;;;;;2.00;1.15;;;;;;;;;;5051121;28;20035;-89
2022/12/31 01:32:12;;;;;;;2.05;0.85;;;;;;;;;;5055292;28;20053;-89
2022/12/31 01:34:57;;;;;;;0.90;0.80;;;;;;;;;;5023121;28;20551;-74
2022/12/31 01:37:42;;;;;;;2.40;0.85;;;;;;;;;;5037234;28;20055;-87
2022/12/31 01:40:28;;;;;;;2.53;0.85;;;;;;;;;;5049440;28;20048;-86
2022/12/31 01:43:19;;;;;;;0.75;0.75;;;;;;;;;;5049752;28;20044;-86
2022/12/31 01:46:06;;;;;;;1.77;0.95;;;;;;;;;;5030298;28;20029;-86
2022/12/31 01:48:53;;;;;;;1.65;1.10;;;;;;;;;;5042467;28;20025;-84
2022/12/31 01:51:39;;;;;;;2.65;1.10;;;;;;;;;;5035836;28;20511;-88
2022/12/31 01:54:26;;;;;;;3.85;1.00;;;;;;;;;;5037176;28;20086;-78
2022/12/31 01:57:11;;;;;;;0.85;0.70;;;;;;;;;;5038771;28;20099;-90
2022/12/31 01:59:57;;;;;;;1.00;0.70;;;;;;;;;;5042797;28;20116;-91
2022/12/31 02:02:43;;;;;;;1.02;0.70;;;;;;;;;;5035399;28;20028;-90
2022/12/31 02:05:31;;;;;;;1.77;1.05;;;;;;;;;;5044716;28;20167;-90
2022/12/31 02:08:17;;;;;;;1.58;0.85;;;;;;;;;;5050880;28;20417;-91
2022/12/31 02:11:17;;;;;;;2.05;0.90;;;;;;;;;;5030162;28;20060;-90
2022/12/31 02:14:05;;;;;;;1.63;0.90;;;;;;;;;;5016929;28;20071;-76
2022/12/31 02:16:59;;;;;;;1.67;0.80;;;;;;;;;;5034430;28;20033;-77
2022/12/31 02:19:50;;;;;;;2.10;1.10;;;;;;;;;;5049608;28;20029;-75
2022/12/31 02:22:46;;;;;;;2.45;0.85;;;;;;;;;;5026664;28;20025;-75
2022/12/31 02:25:40;;;;;;;1.58;0.75;;;;;;;;;;5039617;28;20032;-77
2022/12/31 02:28:26;;;;;;;2.25;1.20;;;;;;;;;;5036055;28;20037;-76
2022/12/31 02:31:13;;;;;;;1.10;0.82;;;;;;;;;;5049179;28;20037;-72
2022/12/31 02:34:05;;;;;;;1.95;0.98;;;;;;;;;;5037490;28;20021;-77
2022/12/31 02:36:51;;;;;;;13.45;1.30;;;;;;;;;;5053358;28;20365;-77
2022/12/31 02:39:37;;;;;;;1.05;0.95;;;;;;;;;;5035940;28;20029;-77
2022/12/31 02:42:22;;;;;;;2.92;0.82;;;;;;;;;;5035693;28;20479;-79
2022/12/31 02:45:10;;;;;;;3.85;0.82;;;;;;;;;;5048794;28;20509;-78
2022/12/31 02:48:01;;;;;;;3.10;0.88;;;;;;;;;;5037253;28;20025;-78
2022/12/31 02:51:06;;;;;;;2.25;0.80;;;;;;;;;;5036948;28;20509;-91
2022/12/31 02:53:52;;;;;;;1.58;1.00;;;;;;;;;;5039493;28;20480;-91
2022/12/31 02:56:46;;;;;;;1.60;1.00;;;;;;;;;;5038107;28;20472;-92
2022/12/31 03:02:53;;;;;;;1.08;0.95;;;;;;;;;;5051068;28;20084;-91
2022/12/31 03:05:43;;;;;;;2.67;1.08;;;;;;;;;;5039418;28;20717;-91
2022/12/31 03:08:28;;;;;;;;;;;;;;;;;;5044463;28;20049;-72
2022/12/31 03:12:45;;;;;;;0.80;0.80;;;;;;;;;;5033253;28;19916;-72
2022/12/31 03:14:19;;;;;;;1.95;0.95;;;;;;;;;;5033019;28;20039;-69
2022/12/31 03:17:04;;;;;;;3.22;1.10;;;;;;;;;;5033374;28;20459;-69
2022/12/31 03:22:53;;;;;;;1.13;0.70;;;;;;;;;;5043466;28;20257;-70
2022/12/31 03:25:39;;;;;;;1.75;0.80;;;;;;;;;;5047915;28;20037;-77
2022/12/31 03:28:25;;;;;;;0.75;0.75;;;;;;;;;;5035038;28;20052;-68
2022/12/31 03:31:10;;;;;;;1.20;0.70;;;;;;;;;;5034413;28;20427;-69
2022/12/31 03:33:56;;;;;;;1.10;0.80;;;;;;;;;;5048375;28;20037;-68
2022/12/31 03:36:41;;;;;;;0.95;0.80;;;;;;;;;;5047904;28;20057;-69
2022/12/31 03:39:26;;;;;;;1.25;0.80;;;;;;;;;;5029227;28;20139;-70
2022/12/31 03:42:11;;;;;;;1.05;0.70;;;;;;;;;;5047990;28;20025;-71
2022/12/31 03:44:56;;;;;;;3.13;0.98;;;;;;;;;;5047168;28;20097;-73
2022/12/31 03:47:42;;;;;;;0.85;0.80;;;;;;;;;;5025133;28;20032;-68
2022/12/31 03:50:27;;;;;;;2.72;1.00;;;;;;;;;;5033275;28;20507;-68
2022/12/31 03:53:12;;;;;;;0.75;0.55;;;;;;;;;;5028225;28;20055;-68
2022/12/31 03:55:57;;;;;;;0.85;0.70;;;;;;;;;;5047778;28;20703;-67
2022/12/31 03:58:43;;;;;;;1.17;0.85;;;;;;;;;;5034064;28;20036;-67
2022/12/31 04:01:28;;;;;;;0.73;0.65;;;;;;;;;;5042174;28;20044;-76
2022/12/31 04:04:13;;;;;;;0.88;0.70;;;;;;;;;;5034116;28;20056;-68
2022/12/31 04:06:58;;;;;;;1.88;0.90;;;;;;;;;;5033505;28;20039;-68
2022/12/31 04:09:43;;;;;;;0.90;0.73;;;;;;;;;;5035458;28;20040;-68
2022/12/31 04:12:29;;;;;;;0.85;0.80;;;;;;;;;;5037540;28;20044;-68
2022/12/31 04:15:16;;;;;;;0.82;0.80;;;;;;;;;;5028761;28;20048;-67
2022/12/31 04:18:01;;;;;;;0.65;0.65;;;;;;;;;;5033610;28;20029;-68
2022/12/31 04:20:46;;;;;;;2.35;1.02;;;;;;;;;;5033848;28;20017;-67
2022/12/31 04:23:32;;;;;;;1.15;0.70;;;;;;;;;;5034599;28;20040;-91
2022/12/31 04:26:17;;;;;;;2.55;0.60;;;;;;;;;;5033161;28;20037;-89
2022/12/31 04:29:02;;;;;;;0.60;0.60;;;;;;;;;;5034025;28;20044;-90
2022/12/31 04:31:47;;;;;;;3.58;0.85;;;;;;;;;;5048262;28;20083;-92
2022/12/31 04:34:33;;;;;;;1.85;0.80;;;;;;;;;;5006936;28;20124;-91
2022/12/31 04:37:18;;;;;;;1.02;0.80;;;;;;;;;;5033833;28;20395;-91
2022/12/31 04:40:04;;;;;;;2.10;0.75;;;;;;;;;;5019147;28;20033;-78
2022/12/31 04:42:49;;;;;;;0.90;0.60;;;;;;;;;;5041712;28;20349;-92
2022/12/31 04:45:34;;;;;;;1.52;0.88;;;;;;;;;;5038462;28;20029;-93
2022/12/31 04:48:19;;;;;;;1.23;0.90;;;;;;;;;;5025763;28;20036;-92
2022/12/31 04:51:05;;;;;;;0.80;0.80;;;;;;;;;;5009532;28;20380;-92
2022/12/31 04:53:50;;;;;;;1.55;0.70;;;;;;;;;;5018833;28;20087;-92
2022/12/31 04:56:35;;;;;;;2.30;0.80;;;;;;;;;;5036047;28;20105;-67
2022/12/31 04:59:20;;;;;;;1.13;0.70;;;;;;;;;;5032510;28;20041;-71
2022/12/31 05:02:06;;;;;;;0.88;0.65;;;;;;;;;;5030995;28;20353;-69
2022/12/31 05:04:51;;;;;;;1.33;0.82;;;;;;;;;;5031883;28;20039;-71
2022/12/31 05:07:36;;;;;;;1.00;0.90;;;;;;;;;;5031829;28;20032;-69
2022/12/31 05:10:22;;;;;;;0.70;0.70;;;;;;;;;;5031791;28;20047;-69
2022/12/31 05:13:07;;;;;;;1.25;0.80;;;;;;;;;;5031411;28;20462;-70
2022/12/31 05:15:52;;;;;;;0.60;0.60;;;;;;;;;;5016756;28;20395;-68
2022/12/31 05:18:38;;;;;;;0.60;0.60;;;;;;;;;;5033201;28;20037;-69
2022/12/31 05:21:23;;;;;;;0.98;0.70;;;;;;;;;;5032791;28;20253;-70
2022/12/31 05:24:08;;;;;;;0.68;0.68;;;;;;;;;;5015358;28;20083;-70
2022/12/31 05:26:53;;;;;;;1.40;0.70;;;;;;;;;;5032539;28;20104;-69
2022/12/31 05:29:39;;;;;;;1.85;0.70;;;;;;;;;;5032895;28;20084;-69
2022/12/31 05:32:24;;;;;;;0.80;0.80;;;;;;;;;;5032447;28;20116;-67
2022/12/31 05:35:10;;;;;;;2.40;0.80;;;;;;;;;;5032454;28;20045;-70
2022/12/31 05:37:55;;;;;;;1.17;0.70;;;;;;;;;;5032183;28;20043;-69
2022/12/31 05:40:40;;;;;;;0.70;0.70;;;;;;;;;;5018695;28;20055;-68
2022/12/31 05:43:25;;;;;;;0.82;0.70;;;;;;;;;;5032388;28;20033;-69
2022/12/31 05:46:10;;;;;;;1.05;0.90;;;;;;;;;;5035415;28;20075;-69
2022/12/31 05:48:56;;;;;;;2.53;0.90;;;;;;;;;;5036133;28;20392;-69
2022/12/31 05:51:41;;;;;;;1.27;1.00;;;;;;;;;;5032616;28;20033;-70
2022/12/31 05:54:26;;;;;;;1.90;0.70;;;;;;;;;;5032622;28;20036;-77
2022/12/31 05:57:12;;;;;;;1.27;0.75;;;;;;;;;;5032137;28;20040;-77
2022/12/31 05:59:57;;;;;;;1.92;1.73;;;;;;;;;;5023009;28;20036;-80
2022/12/31 06:02:42;;;;;;;0.88;0.70;;;;;;;;;;5032355;28;20071;-79
2022/12/31 06:05:27;;;;;;;2.78;0.90;;;;;;;;;;5032787;28;20043;-80
2022/12/31 06:08:12;;;;;;;0.98;0.77;;;;;;;;;;5034046;28;20033;-78
2022/12/31 06:10:58;;;;;;;1.67;0.90;;;;;;;;;;5035698;28;20056;-90
2022/12/31 06:13:43;;;;;;;1.35;0.80;;;;;;;;;;5035372;28;20384;-76
2022/12/31 06:16:28;;;;;;;2.35;0.77;;;;;;;;;;5034369;28;20047;-77
2022/12/31 06:19:13;;;;;;;1.88;0.80;;;;;;;;;;5043711;28;20028;-75
2022/12/31 06:21:58;;;;;;;0.70;0.70;;;;;;;;;;5049620;28;20480;-76
2022/12/31 06:24:44;;;;;;;4.72;1.83;;;;;;;;;;5036027;28;20055;-75
2022/12/31 06:27:29;;;;;;;1.73;0.90;;;;;;;;;;5035861;28;20029;-76
2022/12/31 06:30:14;;;;;;;2.88;1.10;;;;;;;;;;5034949;28;20028;-75
2022/12/31 06:32:59;;;;;;;4.32;1.10;;;;;;;;;;5020940;28;20033;-70
2022/12/31 06:35:45;;;;;;;2.20;1.50;;;;;;;;;;5034188;28;20452;-69
2022/12/31 06:38:31;;;;;;;1.17;0.80;;;;;;;;;;5034194;28;20244;-69
2022/12/31 06:41:17;;;;;;;4.35;1.08;;;;;;;;;;5020784;28;20032;-72
2022/12/31 06:44:02;;;;;;;2.47;1.27;;;;;;;;;;5034673;28;20029;-70
2022/12/31 06:46:48;;;;;;;3.10;1.50;;;;;;;;;;5026023;28;20075;-78
2022/12/31 06:49:33;;;;;;;1.58;0.82;;;;;;;;;;5049534;28;20445;-89
2022/12/31 06:52:19;;;;;;;1.27;0.95;;;;;;;;;;5040614;28;20032;-68
2022/12/31 06:55:05;;;;;;;5.68;1.10;;;;;;;;;;5034969;28;20032;-69
2022/12/31 06:57:50;;;;;;;1.42;0.98;;;;;;;;;;5034561;28;20028;-69
2022/12/31 07:00:35;;;;;;;1.95;1.00;;;;;;;;;;5034721;28;20029;-69
2022/12/31 07:03:27;;;;;;;2.88;1.00;;;;;;;;;;5034776;28;20386;-69
2022/12/31 07:06:15;;;;;;;4.43;1.35;;;;;;;;;;5021316;28;20036;-75
2022/12/31 07:09:04;;;;;;;1.30;1.10;;;;;;;;;;5034867;28;20024;-68
2022/12/31 07:11:52;;;;;;;3.58;1.27;;;;;;;;;;5034809;28;20028;-66
2022/12/31 07:14:45;;;;;;;1.17;0.90;;;;;;;;;;5035003;28;20114;-67
2022/12/31 07:17:36;;;;;;;2.88;1.10;;;;;;;;;;5023160;28;20032;-68
2022/12/31 07:20:21;;;;;;;1.70;0.88;;;;;;;;;;5033775;28;20028;-67
2022/12/31 07:23:07;;;;;;;1.25;0.88;;;;;;;;;;5041560;28;20058;-67
2022/12/31 07:26:21;;;;;;;1.73;1.00;;;;;;;;;;5022812;28;20492;-91
2022/12/31 07:29:10;;;;;;;1.88;1.20;;;;;;;;;;5028351;28;20531;-72
2022/12/31 07:32:14;;;;;;;2.45;0.90;;;;;;;;;;5034173;28;20265;-72
2022/12/31 07:35:00;;;;;;;1.27;0.90;;;;;;;;;;5034538;28;20064;-74
2022/12/31 07:37:45;;;;;;;2.80;0.90;;;;;;;;;;5033913;28;20086;-72
2022/12/31 07:40:56;;;;;;;4.18;2.10;;;;;;;;;;5034377;28;20040;-73
2022/12/31 07:43:49;;;;;;;3.22;1.60;;;;;;;;;;5033791;28;20511;-89
2022/12/31 07:46:41;;;;;;;2.50;1.10;;;;;;;;;;5025057;28;20111;-72
2022/12/31 07:49:27;;;;;;;1.27;0.77;;;;;;;;;;5033065;28;20365;-73
2022/12/31 07:52:12;;;;;;;1.38;0.80;;;;;;;;;;5033684;28;20064;-73
2022/12/31 07:54:58;;;;;;;3.67;1.00;;;;;;;;;;5040761;28;20036;-73
2022/12/31 07:57:52;;;;;;;1.08;0.90;;;;;;;;;;5033795;28;20032;-73
2022/12/31 08:00:38;;;;;;;1.98;0.90;;;;;;;;;;5019667;28;20060;-76
2022/12/31 08:03:33;;;;;;;1.08;0.98;;;;;;;;;;5019366;28;20029;-72
2022/12/31 08:06:24;;;;;;;0.70;0.65;;;;;;;;;;5033489;28;20527;-72
2022/12/31 08:09:10;;;;;;;2.25;1.00;;;;;;;;;;5033546;28;20055;-74
2022/12/31 08:11:59;;;;;;;2.03;1.10;;;;;;;;;;5019960;28;20032;-73
2022/12/31 08:14:45;;;;;;;1.85;1.20;;;;;;;;;;5027580;28;20043;-71
2022/12/31 08:17:31;;;;;;;1.58;0.93;;;;;;;;;;5021906;28;20492;-74
2022/12/31 08:20:16;;;;;;;1.00;0.85;;;;;;;;;;5033995;28;20052;-68
2022/12/31 08:23:24;;;;;;;1.70;0.90;;;;;;;;;;5032760;28;20024;-71
2022/12/31 08:26:25;;;;;;;1.70;1.30;;;;;;;;;;5039973;28;20032;-70
2022/12/31 08:29:25;;;;;;;1.13;0.80;;;;;;;;;;5049850;28;20036;-69
2022/12/31 08:32:15;;;;;;;1.48;0.90;;;;;;;;;;5033662;28;20173;-70
2022/12/31 08:35:13;;;;;;;1.63;0.80;;;;;;;;;;5033323;28;20029;-70
2022/12/31 08:38:06;;;;;;;2.08;1.30;;;;;;;;;;5040000;28;20409;-76
2022/12/31 08:40:51;;;;;;;3.08;1.05;;;;;;;;;;5020216;28;20029;-78
2022/12/31 08:43:48;;;;;;;1.83;0.90;;;;;;;;;;5032863;28;20566;-76
2022/12/31 08:46:44;;;;;;;8.20;1.25;;;;;;;;;;5026909;28;20109;-76
2022/12/31 08:49:31;;;;;;;1.75;0.80;;;;;;;;;;5032495;28;20104;-78
2022/12/31 08:52:20;;;;;;;1.90;1.00;;;;;;;;;;5033193;28;20092;-76
2022/12/31 08:55:06;;;;;;;0.85;0.80;;;;;;;;;;5033245;28;20048;-75
2022/12/31 08:58:02;;;;;;;1.23;0.75;;;;;;;;;;5034267;28;20035;-77
2022/12/31 09:00:49;;;;;;;2.35;1.30;;;;;;;;;;5036853;28;20044;-78
2022/12/31 09:03:34;;;;;;;1.00;0.90;;;;;;;;;;5032415;28;20163;-77
2022/12/31 09:06:19;;;;;;;4.40;1.20;;;;;;;;;;5032701;28;20029;-77
2022/12/31 09:09:08;;;;;;;1.13;0.82;;;;;;;;;;5032555;28;20032;-76
2022/12/31 09:11:53;;;;;;;2.95;0.75;;;;;;;;;;5033041;28;20036;-77
2022/12/31 09:14:43;;;;;;;1.85;0.80;;;;;;;;;;5032182;28;20191;-70
2022/12/31 09:17:48;;;;;;;2.20;0.70;;;;;;;;;;5020910;28;20056;-77
2022/12/31 09:20:33;;;;;;;2.92;1.05;;;;;;;;;;5032987;28;20032;-77
2022/12/31 09:23:19;;;;;;;2.50;1.20;;;;;;;;;;5032494;28;20025;-77
2022/12/31 09:26:22;;;;;;;1.58;0.70;;;;;;;;;;5019397;28;20029;-76
2022/12/31 09:29:11;;;;;;;1.25;0.70;;;;;;;;;;5032637;28;20029;-78
2022/12/31 09:32:01;;;;;;;1.10;0.90;;;;;;;;;;5040198;28;20033;-76
2022/12/31 09:34:55;;;;;;;3.25;1.13;;;;;;;;;;5032484;28;20048;-68
2022/12/31 09:37:50;;;;;;;1.15;0.88;;;;;;;;;;5032816;28;20076;-77
2022/12/31 09:40:46;;;;;;;0.90;0.80;;;;;;;;;;5032994;28;20028;-77
2022/12/31 09:43:35;;;;;;;1.42;0.95;;;;;;;;;;5034678;28;20036;-76
2022/12/31 09:46:20;;;;;;;2.58;0.77;;;;;;;;;;5034645;28;20048;-77
2022/12/31 09:49:11;;;;;;;1.42;1.08;;;;;;;;;;5035836;28;20111;-77
2022/12/31 09:52:20;;;;;;;1.65;1.02;;;;;;;;;;5036661;28;20036;-77
2022/12/31 09:55:11;;;;;;;0.90;0.80;;;;;;;;;;5009068;28;20063;-88
2022/12/31 09:58:11;;;;;;;0.68;0.68;;;;;;;;;;5022164;28;20051;-90
2022/12/31 10:01:05;;;;;;;1.20;0.70;;;;;;;;;;5010118;28;20078;-89
2022/12/31 10:04:09;;;;;;;1.15;0.80;;;;;;;;;;5035784;28;20179;-89
2022/12/31 10:07:02;;;;;;;0.60;0.60;;;;;;;;;;5045872;28;20375;-89
2022/12/31 10:10:14;;;;;;;2.85;0.80;;;;;;;;;;5038719;28;20131;-70
2022/12/31 10:13:15;;;;;;;0.82;0.75;;;;;;;;;;5035802;28;20441;-76
2022/12/31 10:16:19;;;;;;;1.45;0.80;;;;;;;;;;5039682;28;20040;-77
2022/12/31 10:19:23;;;;;;;1.50;0.90;;;;;;;;;;5035656;28;20568;-76
2022/12/31 10:22:14;;;;;;;1.48;1.08;;;;;;;;;;5035510;28;20033;-76
2022/12/31 10:25:07;;;;;;;1.42;1.05;;;;;;;;;;5035124;28;20025;-79
2022/12/31 10:28:12;;;;;;;3.10;0.80;;;;;;;;;;5035998;28;20029;-76
2022/12/31 10:31:36;;;;;;;3.92;1.10;;;;;;;;;;5033226;28;20214;-72
2022/12/31 10:34:41;;;;;;;2.30;0.90;;;;;;;;;;4963777;28;20022;-72
2022/12/31 10:37:29;;;;;;;2.40;0.73;;;;;;;;;;4966619;28;20038;-73
2022/12/31 10:40:21;;;;;;;0.95;0.80;;;;;;;;;;5033195;28;20488;-72
2022/12/31 10:43:06;;;;;;;1.33;0.88;;;;;;;;;;5038986;28;20032;-71
2022/12/31 10:46:07;;;;;;;1.00;0.80;;;;;;;;;;5049221;28;20029;-76
2022/12/31 10:48:55;;;;;;;2.10;0.90;;;;;;;;;;5035114;28;20060;-70
2022/12/31 10:51:40;;;;;;;1.10;0.80;;;;;;;;;;5035825;28;20032;-67
2022/12/31 10:54:41;;;;;;;0.98;0.80;;;;;;;;;;5034512;28;20550;-66
2022/12/31 10:57:42;;;;;;;0.98;0.63;;;;;;;;;;5035071;28;20260;-66
2022/12/31 11:00:46;;;;;;;1.08;1.00;;;;;;;;;;5034343;28;20222;-67
2022/12/31 11:03:50;;;;;;;0.90;0.90;;;;;;;;;;5034630;28;20033;-68
2022/12/31 11:07:02;;;;;;;0.80;0.80;;;;;;;;;;5040560;28;20024;-71
2022/12/31 11:09:53;;;;;;;1.38;0.75;;;;;;;;;;5034276;28;20036;-68
2022/12/31 11:12:57;;;;;;;1.05;0.80;;;;;;;;;;5034785;28;20555;-68
2022/12/31 11:16:01;;;;;;;1.52;1.10;;;;;;;;;;5034691;28;20043;-68
2022/12/31 11:19:05;;;;;;;2.40;1.10;;;;;;;;;;5034741;28;20102;-67
2022/12/31 11:21:50;;;;;;;2.80;0.80;;;;;;;;;;5034634;28;20433;-68
2022/12/31 11:24:47;;;;;;;0.90;0.75;;;;;;;;;;5034500;28;20090;-77
2022/12/31 11:27:33;;;;;;;2.72;0.95;;;;;;;;;;5022343;28;20369;-73
2022/12/31 11:30:18;;;;;;;2.25;0.95;;;;;;;;;;5034003;28;20067;-75
2022/12/31 11:33:06;;;;;;;2.60;1.30;;;;;;;;;;5034976;28;20458;-74
2022/12/31 11:36:10;;;;;;;0.85;0.68;;;;;;;;;;5017071;28;20618;-74
2022/12/31 11:39:11;;;;;;;1.52;0.60;;;;;;;;;;5037730;28;20029;-72
2022/12/31 11:42:15;;;;;;;3.85;0.88;;;;;;;;;;5034657;28;20147;-71
2022/12/31 11:45:03;;;;;;;1.30;0.68;;;;;;;;;;5034576;28;20021;-70
2022/12/31 11:48:07;;;;;;;1.70;0.70;;;;;;;;;;5020392;28;20057;-71
2022/12/31 11:51:11;;;;;;;3.28;0.90;;;;;;;;;;5033688;28;20029;-68
2022/12/31 11:54:13;;;;;;;1.17;0.73;;;;;;;;;;5033212;28;20052;-68
2022/12/31 11:57:04;;;;;;;1.77;0.85;;;;;;;;;;5033285;28;20498;-69
2022/12/31 11:59:53;;;;;;;1.38;0.88;;;;;;;;;;5033150;28;20033;-72
2022/12/31 12:02:43;;;;;;;3.40;1.20;;;;;;;;;;5034099;28;20044;-75
2022/12/31 12:05:28;;;;;;;1.02;0.90;;;;;;;;;;5026216;28;20381;-77
2022/12/31 12:08:14;;;;;;;0.90;0.73;;;;;;;;;;5032836;28;20044;-75
2022/12/31 12:11:05;;;;;;;2.78;1.65;;;;;;;;;;5040250;28;20086;-75
2022/12/31 12:13:50;;;;;;;1.70;0.88;;;;;;;;;;5033962;28;20438;-75
2022/12/31 12:16:36;;;;;;;3.20;1.00;;;;;;;;;;5034092;28;20033;-75
2022/12/31 12:19:23;;;;;;;1.30;0.90;;;;;;;;;;5033962;28;20040;-75
2022/12/31 12:22:12;;;;;;;0.80;0.80;;;;;;;;;;5033882;28;20033;-77
2022/12/31 12:25:03;;;;;;;1.40;0.90;;;;;;;;;;5033674;28;20421;-77
2022/12/31 12:27:49;;;;;;;1.70;1.10;;;;;;;;;;5020180;28;20384;-76
2022/12/31 12:30:36;;;;;;;1.02;0.70;;;;;;;;;;5033209;28;20028;-76
2022/12/31 12:33:22;;;;;;;1.40;0.70;;;;;;;;;;5033714;28;20388;-76
2022/12/31 12:36:08;;;;;;;1.25;0.88;;;;;;;;;;5033524;28;20032;-76
2022/12/31 12:39:01;;;;;;;1.02;0.90;;;;;;;;;;5034504;28;20031;-89
2022/12/31 12:41:46;;;;;;;1.00;0.90;;;;;;;;;;5036527;28;20029;-88
2022/12/31 12:44:31;;;;;;;1.58;0.80;;;;;;;;;;5039633;28;20387;-87
2022/12/31 12:47:17;;;;;;;1.75;0.80;;;;;;;;;;5048706;28;20044;-90
2022/12/31 12:50:03;;;;;;;1.00;0.80;;;;;;;;;;5035146;28;20508;-88
2022/12/31 12:53:08;;;;;;;3.03;1.20;;;;;;;;;;5034806;28;20029;-89
2022/12/31 12:55:56;;;;;;;0.90;0.85;;;;;;;;;;5011007;28;20488;-72
2022/12/31 12:58:49;;;;;;;3.42;0.70;;;;;;;;;;5035414;28;20395;-67
2022/12/31 13:01:35;;;;;;;1.10;0.77;;;;;;;;;;5030683;28;20047;-66
2022/12/31 13:04:27;;;;;;;0.93;0.75;;;;;;;;;;5033356;28;20361;-68
2022/12/31 13:07:23;;;;;;;0.70;0.70;;;;;;;;;;5021516;28;20159;-67
2022/12/31 13:10:21;;;;;;;1.83;1.02;;;;;;;;;;5032793;28;20041;-68
2022/12/31 13:13:21;;;;;;;2.08;0.90;;;;;;;;;;5033181;28;20037;-72
2022/12/31 13:16:18;;;;;;;0.80;0.80;;;;;;;;;;5022097;28;20029;-69
2022/12/31 13:19:16;;;;;;;1.73;1.10;;;;;;;;;;5038026;28;20036;-71
2022/12/31 13:22:20;;;;;;;0.90;0.90;;;;;;;;;;5032539;28;20032;-71
2022/12/31 13:25:24;;;;;;;1.17;0.73;;;;;;;;;;5034577;28;20048;-69
2022/12/31 13:28:12;;;;;;;2.47;1.00;;;;;;;;;;5023332;28;20542;-70
2022/12/31 13:31:04;;;;;;;1.30;1.02;;;;;;;;;;5037028;28;20029;-70
2022/12/31 13:33:52;;;;;;;2.25;0.70;;;;;;;;;;5037017;28;20052;-79
2022/12/31 13:36:39;;;;;;;2.83;0.90;;;;;;;;;;5036753;28;20434;-78
2022/12/31 13:39:27;;;;;;;0.77;0.77;;;;;;;;;;5037001;28;20086;-76
2022/12/31 13:42:20;;;;;;;3.20;0.70;;;;;;;;;;5037025;28;20520;-78
2022/12/31 13:45:09;;;;;;;1.27;0.90;;;;;;;;;;5036816;28;20028;-81
2022/12/31 13:47:57;;;;;;;0.80;0.80;;;;;;;;;;5031947;28;20025;-76
2022/12/31 13:50:50;;;;;;;0.70;0.60;;;;;;;;;;5036348;28;20392;-75
2022/12/31 13:53:38;;;;;;;1.58;1.00;;;;;;;;;;5037069;28;20037;-75
2022/12/31 13:56:26;;;;;;;2.10;1.08;;;;;;;;;;5036738;28;20616;-77
2022/12/31 13:59:17;;;;;;;1.48;0.90;;;;;;;;;;5022750;28;20021;-79
2022/12/31 14:02:03;;;;;;;4.18;1.40;;;;;;;;;;5036855;28;20036;-77
2022/12/31 14:04:51;;;;;;;1.63;1.10;;;;;;;;;;5022404;28;20123;-77
2022/12/31 14:07:39;;;;;;;1.52;1.10;;;;;;;;;;5036292;28;20029;-76
2022/12/31 14:10:30;;;;;;;3.03;1.05;;;;;;;;;;5008868;28;20073;-89
2022/12/31 14:13:35;;;;;;;3.38;1.40;;;;;;;;;;5022148;28;20025;-67
2022/12/31 14:16:27;;;;;;;3.17;1.13;;;;;;;;;;5043344;28;20075;-69
2022/12/31 14:19:21;;;;;;;1.85;1.00;;;;;;;;;;5043475;28;20020;-67
2022/12/31 14:22:06;;;;;;;3.00;1.58;;;;;;;;;;5049626;28;20060;-68
2022/12/31 14:24:52;;;;;;;2.30;1.15;;;;;;;;;;5022047;28;20039;-68
2022/12/31 14:27:40;;;;;;;2.85;1.02;;;;;;;;;;5023932;28;20037;-90
2022/12/31 14:30:29;;;;;;;1.23;1.13;;;;;;;;;;5036480;28;20025;-89
2022/12/31 14:33:40;;;;;;;1.77;1.02;;;;;;;;;;5036579;28;20029;-88
2022/12/31 14:36:29;;;;;;;1.30;1.00;;;;;;;;;;5041398;28;20057;-87
2022/12/31 14:39:21;;;;;;;1.15;0.80;;;;;;;;;;5036031;28;20028;-90
2022/12/31 14:42:20;;;;;;;1.00;0.90;;;;;;;;;;5035637;28;20252;-88
2022/12/31 14:45:05;;;;;;;;;;;;;;;;;;5032239;28;20036;-72
2022/12/31 14:48:02;;;;;;;2.85;1.33;;;;;;;;;;5021675;28;20389;-73
2022/12/31 14:50:47;;;;;;;1.42;0.95;;;;;;;;;;5055088;28;20102;-67
2022/12/31 14:53:32;;;;;;;1.58;1.20;;;;;;;;;;5036581;28;20033;-69
2022/12/31 14:56:44;;;;;;;2.97;1.50;;;;;;;;;;5035273;28;20033;-68
2022/12/31 14:59:30;;;;;;;3.83;1.92;;;;;;;;;;5034813;28;20054;-67
2022/12/31 15:02:33;;;;;;;8.18;3.45;;;;;;;;;;5035193;28;20116;-68
2022/12/31 15:05:20;;;;;;;6.30;2.00;;;;;;;;;;5034889;28;20025;-67
2022/12/31 15:08:05;;;;;;;4.25;1.80;;;;;;;;;;5034652;28;20385;-68
2022/12/31 15:11:11;;;;;;;2.97;1.40;;;;;;;;;;5033321;28;20104;-71
2022/12/31 15:14:15;;;;;;;3.45;1.55;;;;;;;;;;5018908;28;20499;-69
2022/12/31 15:17:00;;;;;;;4.78;1.77;;;;;;;;;;5033024;28;20033;-71
2022/12/31 15:19:45;;;;;;;4.03;1.60;;;;;;;;;;5033588;28;20036;-69
2022/12/31 15:22:35;;;;;;;4.10;1.58;;;;;;;;;;5038490;28;20048;-67
2022/12/31 15:25:47;;;;;;;3.53;1.73;;;;;;;;;;5035382;28;20052;-89
2022/12/31 15:28:37;;;;;;;7.38;1.83;;;;;;;;;;5028553;28;20492;-89
2022/12/31 15:31:22;;;;;;;;;;;;;;;;;;5037687;28;20041;-89
2022/12/31 15:34:22;;;;;;;5.63;2.22;;;;;;;;;;5027443;28;20275;-88
2022/12/31 15:37:26;;;;;;;5.75;2.13;;;;;;;;;;5039302;28;20037;-90
2022/12/31 15:40:14;;;;;;;5.63;1.38;;;;;;;;;;5022970;28;20032;-70
2022/12/31 15:43:03;;;;;;;7.60;3.42;;;;;;;;;;5035338;28;20028;-89
2022/12/31 15:45:51;;;;;;;7.97;2.17;;;;;;;;;;5058654;28;20067;-89
2022/12/31 15:48:44;;;;;;;5.30;2.55;;;;;;;;;;5059409;28;20024;-88
2022/12/31 15:51:31;;;;;;;4.00;2.25;;;;;;;;;;5035326;28;20325;-90
2022/12/31 15:54:29;;;;;;;6.75;2.67;;;;;;;;;;5039640;28;20320;-89
2022/12/31 15:57:16;;;;;;;4.07;2.58;;;;;;;;;;5023879;28;20037;-90
2022/12/31 16:00:05;;;;;;;9.40;2.75;;;;;;;;;;5024988;28;20032;-71
2022/12/31 16:02:52;;;;;;;8.68;2.58;;;;;;;;;;5033602;28;20029;-69
2022/12/31 16:05:38;;;;;;;15.77;2.90;;;;;;;;;;5033136;28;20492;-69
2022/12/31 16:08:24;;;;;;;5.65;2.38;;;;;;;;;;5033738;28;20383;-70
2022/12/31 16:11:10;;;;;;;3.13;2.28;;;;;;;;;;5033556;28;20033;-70
2022/12/31 16:13:56;;;;;;;8.65;3.00;;;;;;;;;;5020687;28;20029;-69
2022/12/31 16:16:49;;;;;;;6.90;2.75;;;;;;;;;;5032421;28;20033;-70
2022/12/31 16:19:40;;;;;;;4.25;2.63;;;;;;;;;;5034020;28;20078;-80
2022/12/31 16:22:36;;;;;;;19.38;8.10;;;;;;;;;;5033708;28;20084;-67
2022/12/31 16:25:22;;;;;;;9.77;4.10;;;;;;;;;;5033761;28;20057;-67
2022/12/31 16:28:13;;;;;;;7.35;3.58;;;;;;;;;;5033029;28;20484;-70
2022/12/31 16:31:04;;;;;;;7.22;3.17;;;;;;;;;;5033269;28;20037;-68
2022/12/31 16:33:49;;;;;;;7.80;4.18;;;;;;;;;;5033588;28;20052;-67
2022/12/31 16:36:34;;;;;;;11.48;5.07;;;;;;;;;;5033185;28;20029;-71
2022/12/31 16:39:36;;;;;;;8.73;4.28;;;;;;;;;;5031040;28;20090;-73
2022/12/31 16:42:22;;;;;;;11.63;5.55;;;;;;;;;;5033061;28;20021;-74
2022/12/31 16:45:16;;;;;;;11.93;5.97;;;;;;;;;;5033730;28;20033;-76
2022/12/31 16:48:06;;;;;;;7.75;3.92;;;;;;;;;;5032031;28;20043;-71
2022/12/31 16:50:52;;;;;;;7.78;3.92;;;;;;;;;;5033160;28;20040;-71
2022/12/31 16:53:39;;;;;;;20.02;9.80;;;;;;;;;;5033405;28;20476;-73
2022/12/31 16:56:33;;;;;;;12.77;4.07;;;;;;;;;;5032887;28;20037;-87
2022/12/31 16:59:30;;;;;;;7.78;3.65;;;;;;;;;;5040998;28;20033;-68
2022/12/31 17:02:18;;;;;;;8.95;4.70;;;;;;;;;;5038265;28;20423;-66
2022/12/31 17:05:04;;;;;;;10.88;5.57;;;;;;;;;;5047155;28;20464;-68